createdAt,value
2018-05-23T00:00:47.891Z,100042.81
2018-05-23T00:03:15.275Z,100039.27
2018-05-23T00:05:43.039Z,100041.13
2018-05-23T00:08:10.439Z,100042.78
2018-05-23T00:10:37.870Z,100048.47
2018-05-23T00:13:05.249Z,100050.14
2018-05-23T00:15:33.006Z,100053.55
2018-05-23T00:18:00.389Z,100051.23
2018-05-23T00:20:27.789Z,100052.55
2018-05-23T00:22:55.181Z,100053.45
2018-05-23T00:25:22.623Z,100043.27
2018-05-23T00:27:50.012Z,100045.81
2018-05-23T00:30:17.405Z,100044.74
2018-05-23T00:32:44.791Z,100047.77
2018-05-23T00:35:13.041Z,100050.78
2018-05-23T00:37:40.415Z,100060.61
2018-05-23T00:40:07.822Z,100064.44
2018-05-23T00:42:37.147Z,100068.26
2018-05-23T00:45:04.552Z,100057.23
2018-05-23T00:47:31.935Z,100054.93
2018-05-23T00:49:59.351Z,100051.96
2018-05-23T00:52:26.734Z,100051.81
2018-05-23T00:55:05.918Z,100056.48
2018-05-23T00:57:33.828Z,100049.74
2018-05-23T01:00:01.218Z,100047.63
2018-05-23T01:02:28.617Z,100058.73
2018-05-23T01:04:55.995Z,100053.98
2018-05-23T01:07:23.394Z,100051.85
2018-05-23T01:09:50.921Z,100051.10
2018-05-23T01:12:18.319Z,100046.00
2018-05-23T01:14:45.697Z,100046.46
2018-05-23T01:17:13.210Z,100047.08
2018-05-23T01:19:40.604Z,100060.87
2018-05-23T01:22:08.008Z,100052.45
2018-05-23T01:24:35.384Z,100053.85
2018-05-23T01:27:02.784Z,100055.16
2018-05-23T01:29:30.194Z,100049.56
2018-05-23T01:31:57.570Z,100039.42
2018-05-23T01:34:24.956Z,100039.90
2018-05-23T01:36:52.348Z,100044.57
2018-05-23T01:39:19.741Z,100044.01
2018-05-23T01:41:47.141Z,100042.38
2018-05-23T01:44:14.529Z,100045.08
2018-05-23T01:46:42.144Z,100047.58
2018-05-23T01:49:21.192Z,100048.39
2018-05-23T01:51:48.855Z,100047.59
2018-05-23T01:54:16.252Z,100045.92
2018-05-23T01:56:43.644Z,100049.25
2018-05-23T01:59:11.201Z,100060.87
2018-05-23T02:01:38.503Z,100066.06
2018-05-23T02:04:05.938Z,100063.78
2018-05-23T02:06:33.336Z,100069.14
2018-05-23T02:09:00.737Z,100064.37
2018-05-23T02:11:28.137Z,100065.25
2018-05-23T02:13:55.515Z,100069.59
2018-05-23T02:16:22.912Z,100062.79
2018-05-23T02:18:52.267Z,100061.02
2018-05-23T02:21:19.657Z,100061.08
2018-05-23T02:23:47.064Z,100064.10
2018-05-23T02:26:14.452Z,100068.25
2018-05-23T02:28:41.841Z,100066.50
2018-05-23T02:31:09.265Z,100066.63
2018-05-23T02:33:36.646Z,100072.16
2018-05-23T02:36:04.047Z,100078.23
2018-05-23T02:38:31.439Z,100079.95
2018-05-23T02:40:58.837Z,100073.89
2018-05-23T02:43:26.228Z,100074.00
2018-05-23T02:45:53.963Z,100078.26
2018-05-23T02:48:21.356Z,100077.73
2018-05-23T02:50:48.755Z,100079.77
2018-05-23T02:53:16.342Z,100076.01
2018-05-23T02:55:43.823Z,100077.27
2018-05-23T02:58:11.224Z,100074.27
2018-05-23T03:00:38.613Z,100078.09
2018-05-23T03:03:06.063Z,100077.37
2018-05-23T03:05:33.382Z,100072.21
2018-05-23T03:08:00.856Z,100073.77
2018-05-23T03:10:28.155Z,100077.28
2018-05-23T03:12:55.548Z,100077.30
2018-05-23T03:15:22.932Z,100075.15
2018-05-23T03:17:50.327Z,100081.99
2018-05-23T03:20:17.702Z,100085.06
2018-05-23T03:22:45.098Z,100088.91
2018-05-23T03:25:12.487Z,100084.97
2018-05-23T03:27:39.887Z,100088.45
2018-05-23T03:30:07.266Z,100091.43
2018-05-23T03:32:34.662Z,100095.77
2018-05-23T03:35:02.043Z,100097.13
2018-05-23T03:37:29.433Z,100095.59
2018-05-23T03:39:56.815Z,100097.80
2018-05-23T03:42:24.211Z,100096.95
2018-05-23T03:44:51.599Z,100107.71
2018-05-23T03:47:18.996Z,100112.43
2018-05-23T03:49:46.379Z,100122.67
2018-05-23T03:52:13.925Z,100122.77
2018-05-23T03:54:41.319Z,100115.28
2018-05-23T03:57:08.702Z,100123.86
2018-05-23T03:59:48.831Z,100120.88
2018-05-23T04:02:27.984Z,100131.16
2018-05-23T04:05:07.163Z,100128.76
2018-05-23T04:07:41.350Z,100134.30
2018-05-23T04:10:08.727Z,100136.05
2018-05-23T04:12:36.275Z,100132.09
2018-05-23T04:15:03.691Z,100130.43
2018-05-23T04:17:31.083Z,100130.95
2018-05-23T04:19:58.471Z,100133.48
2018-05-23T04:22:25.873Z,100137.91
2018-05-23T04:24:53.288Z,100138.78
2018-05-23T04:27:20.677Z,100138.70
2018-05-23T04:29:48.068Z,100149.94
2018-05-23T04:32:15.451Z,100143.43
2018-05-23T04:34:42.839Z,100151.69
2018-05-23T04:37:10.232Z,100154.70
2018-05-23T04:39:37.608Z,100158.86
2018-05-23T04:42:05.003Z,100158.34
2018-05-23T04:44:32.390Z,100163.63
2018-05-23T04:46:59.799Z,100163.01
2018-05-23T04:49:27.182Z,100167.13
2018-05-23T04:51:54.587Z,100165.62
2018-05-23T04:54:21.959Z,100165.59
2018-05-23T04:56:49.351Z,100162.30
2018-05-23T04:59:16.758Z,100169.89
2018-05-23T05:01:44.376Z,100166.12
2018-05-23T05:04:11.773Z,100170.19
2018-05-23T05:06:39.169Z,100176.44
2018-05-23T05:09:06.571Z,100187.91
2018-05-23T05:11:33.959Z,100189.06
2018-05-23T05:14:01.372Z,100189.02
2018-05-23T05:16:28.773Z,100195.33
2018-05-23T05:18:56.172Z,100193.16
2018-05-23T05:21:23.555Z,100197.84
2018-05-23T05:23:50.949Z,100197.34
2018-05-23T05:26:18.343Z,100201.71
2018-05-23T05:28:46.391Z,100198.00
2018-05-23T05:31:14.427Z,100202.69
2018-05-23T05:33:41.831Z,100203.55
2018-05-23T05:36:09.211Z,100203.58
2018-05-23T05:38:36.637Z,100203.86
2018-05-23T05:41:04.044Z,100205.22
2018-05-23T05:43:31.470Z,100205.72
2018-05-23T05:45:58.856Z,100205.20
2018-05-23T05:48:26.241Z,100211.58
2018-05-23T05:50:53.615Z,100210.00
2018-05-23T05:53:21.012Z,100211.73
2018-05-23T05:55:48.398Z,100219.75
2018-05-23T05:58:15.837Z,100215.42
2018-05-23T06:00:43.163Z,100218.97
2018-05-23T06:03:10.558Z,100217.27
2018-05-23T06:05:37.947Z,100222.02
2018-05-23T06:08:05.349Z,100228.44
2018-05-23T06:10:32.733Z,100231.41
2018-05-23T06:13:00.132Z,100234.61
2018-05-23T06:15:27.537Z,100235.33
2018-05-23T06:17:54.927Z,100240.87
2018-05-23T06:20:22.851Z,100244.08
2018-05-23T06:22:50.252Z,100248.11
2018-05-23T06:25:17.647Z,100252.25
2018-05-23T06:27:45.047Z,100254.03
2018-05-23T06:30:12.443Z,100256.23
2018-05-23T06:32:39.836Z,100258.43
2018-05-23T06:35:07.221Z,100261.45
2018-05-23T06:37:34.665Z,100267.61
2018-05-23T06:40:02.072Z,100271.75
2018-05-23T06:42:29.514Z,100273.52
2018-05-23T06:44:56.887Z,100267.75
2018-05-23T06:47:24.305Z,100274.54
2018-05-23T06:49:51.713Z,100270.75
2018-05-23T06:52:19.134Z,100268.55
2018-05-23T06:54:46.530Z,100270.78
2018-05-23T06:57:14.850Z,100268.86
2018-05-23T06:59:42.250Z,100270.16
2018-05-23T07:02:09.646Z,100272.69
2018-05-23T07:04:37.037Z,100273.20
2018-05-23T07:07:04.426Z,100277.49
2018-05-23T07:09:31.821Z,100285.84
2018-05-23T07:11:59.204Z,100287.16
2018-05-23T07:14:26.616Z,100286.17
2018-05-23T07:16:54.036Z,100292.25
2018-05-23T07:19:21.453Z,100299.93
2018-05-23T07:21:48.875Z,100295.86
2018-05-23T07:24:16.286Z,100301.58
2018-05-23T07:26:43.692Z,100305.16
2018-05-23T07:29:11.089Z,100304.44
2018-05-23T07:31:38.502Z,100306.52
2018-05-23T07:34:05.866Z,100301.96
2018-05-23T07:36:33.324Z,100310.12
2018-05-23T07:39:00.778Z,100311.41
2018-05-23T07:41:28.196Z,100309.52
2018-05-23T07:43:55.595Z,100308.23
2018-05-23T07:46:23.056Z,100316.33
2018-05-23T07:48:50.471Z,100310.94
2018-05-23T07:51:17.863Z,100309.27
2018-05-23T07:53:45.266Z,100307.69
2018-05-23T07:56:12.869Z,100308.39
2018-05-23T07:58:40.301Z,100314.19
2018-05-23T08:01:07.717Z,100320.22
2018-05-23T08:03:35.115Z,100314.87
2018-05-23T08:06:02.520Z,100316.53
2018-05-23T08:08:30.117Z,100324.38
2018-05-23T08:10:57.714Z,100327.27
2018-05-23T08:13:25.095Z,100328.86
2018-05-23T08:15:52.739Z,100331.02
2018-05-23T08:18:20.138Z,100336.62
2018-05-23T08:20:47.538Z,100334.95
2018-05-23T08:23:15.355Z,100338.36
2018-05-23T08:25:42.750Z,100333.05
2018-05-23T08:28:10.160Z,100339.34
2018-05-23T08:30:37.550Z,100340.11
2018-05-23T08:33:04.951Z,100336.23
2018-05-23T08:35:32.391Z,100333.31
2018-05-23T08:37:59.785Z,100326.91
2018-05-23T08:40:27.170Z,100331.67
2018-05-23T08:42:54.560Z,100326.97
2018-05-23T08:45:21.959Z,100324.83
2018-05-23T08:47:49.365Z,100323.91
2018-05-23T08:50:16.765Z,100330.08
2018-05-23T08:52:44.167Z,100331.83
2018-05-23T08:55:11.671Z,100337.88
2018-05-23T08:57:39.059Z,100332.70
2018-05-23T09:00:06.477Z,100335.28
2018-05-23T09:02:33.865Z,100337.90
2018-05-23T09:05:01.341Z,100334.41
2018-05-23T09:07:28.674Z,100338.34
2018-05-23T09:09:56.180Z,100337.88
2018-05-23T09:12:23.673Z,100340.50
2018-05-23T09:14:50.980Z,100343.50
2018-05-23T09:17:18.375Z,100347.84
2018-05-23T09:19:45.784Z,100340.89
2018-05-23T09:22:13.189Z,100338.69
2018-05-23T09:24:40.578Z,100338.27
2018-05-23T09:27:07.964Z,100339.55
2018-05-23T09:29:35.371Z,100338.25
2018-05-23T09:32:02.768Z,100345.69
2018-05-23T09:34:30.268Z,100345.67
2018-05-23T09:36:57.698Z,100343.50
2018-05-23T09:39:25.090Z,100355.18
2018-05-23T09:41:52.489Z,100348.23
2018-05-23T09:44:20.048Z,100361.25
2018-05-23T09:46:47.472Z,100357.34
2018-05-23T09:49:15.714Z,100358.21
2018-05-23T09:51:43.126Z,100362.57
2018-05-23T09:54:10.531Z,100358.63
2018-05-23T09:56:37.924Z,100358.66
2018-05-23T09:59:05.321Z,100349.08
2018-05-23T10:01:32.919Z,100350.78
2018-05-23T10:04:00.274Z,100352.91
2018-05-23T10:06:27.664Z,100348.51
2018-05-23T10:08:55.054Z,100351.08
2018-05-23T10:11:22.458Z,100355.51
2018-05-23T10:13:49.852Z,100351.21
2018-05-23T10:16:17.270Z,100349.86
2018-05-23T10:18:44.663Z,100349.22
2018-05-23T10:21:12.057Z,100346.81
2018-05-23T10:23:39.456Z,100349.25
2018-05-23T10:26:06.838Z,100353.40
2018-05-23T10:28:34.350Z,100344.15
2018-05-23T10:31:01.741Z,100350.83
2018-05-23T10:33:29.202Z,100353.36
2018-05-23T10:35:56.525Z,100344.70
2018-05-23T10:38:23.912Z,100341.58
2018-05-23T10:40:51.328Z,100340.69
2018-05-23T10:43:18.699Z,100347.98
2018-05-23T10:45:46.093Z,100342.37
2018-05-23T10:48:13.481Z,100333.88
2018-05-23T10:50:40.879Z,100336.83
2018-05-23T10:53:08.257Z,100339.05
2018-05-23T10:55:35.663Z,100335.84
2018-05-23T10:58:03.044Z,100333.38
2018-05-23T11:00:30.431Z,100332.45
2018-05-23T11:02:57.878Z,100334.88
2018-05-23T11:05:25.215Z,100333.09
2018-05-23T11:07:52.609Z,100334.62
2018-05-23T11:10:20.017Z,100331.14
2018-05-23T11:12:47.401Z,100334.48
2018-05-23T11:15:14.840Z,100329.29
2018-05-23T11:17:42.193Z,100322.28
2018-05-23T11:20:09.588Z,100322.24
2018-05-23T11:22:36.977Z,100320.79
2018-05-23T11:25:04.371Z,100319.36
2018-05-23T11:27:31.834Z,100317.19
2018-05-23T11:29:59.217Z,100313.77
2018-05-23T11:32:26.616Z,100310.69
2018-05-23T11:34:53.998Z,100315.17
2018-05-23T11:37:21.468Z,100306.91
2018-05-23T11:39:48.879Z,100311.39
2018-05-23T11:42:17.472Z,100308.52
2018-05-23T11:44:45.124Z,100309.38
2018-05-23T11:47:12.522Z,100305.11
2018-05-23T11:49:39.906Z,100310.98
2018-05-23T11:52:07.368Z,100310.19
2018-05-23T11:54:34.795Z,100302.54
2018-05-23T11:57:02.152Z,100297.27
2018-05-23T11:59:29.544Z,100293.36
2018-05-23T12:01:57.020Z,100285.70
2018-05-23T12:04:24.476Z,100281.80
2018-05-23T12:06:51.870Z,100273.58
2018-05-23T12:09:19.307Z,100271.35
2018-05-23T12:11:46.740Z,100271.66
2018-05-23T12:14:14.147Z,100270.17
2018-05-23T12:16:42.533Z,100263.20
2018-05-23T12:19:09.947Z,100260.67
2018-05-23T12:21:37.349Z,100252.95
2018-05-23T12:24:04.723Z,100251.33
2018-05-23T12:26:32.175Z,100249.45
2018-05-23T12:28:59.572Z,100247.35
2018-05-23T12:31:27.015Z,100246.97
2018-05-23T12:33:54.404Z,100238.59
2018-05-23T12:36:21.821Z,100232.12
2018-05-23T12:38:49.203Z,100236.45
2018-05-23T12:41:16.836Z,100227.11
2018-05-23T12:43:44.220Z,100230.52
2018-05-23T12:46:11.620Z,100226.56
2018-05-23T12:48:39.008Z,100227.95
2018-05-23T12:51:06.407Z,100219.67
2018-05-23T12:53:33.791Z,100227.12
2018-05-23T12:56:02.181Z,100229.42
2018-05-23T12:58:29.590Z,100233.02
2018-05-23T13:00:56.976Z,100234.58
2018-05-23T13:03:24.462Z,100245.20
2018-05-23T13:05:51.796Z,100238.72
2018-05-23T13:08:19.189Z,100237.90
2018-05-23T13:10:46.580Z,100225.47
2018-05-23T13:13:13.962Z,100230.33
2018-05-23T13:15:41.367Z,100221.98
2018-05-23T13:18:08.811Z,100229.16
2018-05-23T13:20:36.204Z,100227.13
2018-05-23T13:23:03.589Z,100227.23
2018-05-23T13:25:30.980Z,100222.42
2018-05-23T13:27:58.403Z,100202.04
2018-05-23T13:30:25.810Z,100191.53
2018-05-23T13:32:53.200Z,100187.73
2018-05-23T13:35:20.611Z,100189.16
2018-05-23T13:37:47.996Z,100186.25
2018-05-23T13:40:15.423Z,100180.52
2018-05-23T13:42:42.807Z,100182.69
2018-05-23T13:45:10.199Z,100194.62
2018-05-23T13:47:37.578Z,100214.29
2018-05-23T13:50:05.197Z,100233.69
2018-05-23T13:52:32.705Z,100227.94
2018-05-23T13:55:00.228Z,100218.52
2018-05-23T13:57:27.632Z,100268.61
2018-05-23T13:59:55.020Z,100235.02
2018-05-23T14:02:22.686Z,100226.42
2018-05-23T14:04:50.124Z,100217.99
2018-05-23T14:07:17.511Z,100208.28
2018-05-23T14:09:45.249Z,100214.36
2018-05-23T14:12:12.660Z,100218.20
2018-05-23T14:14:40.045Z,100216.03
2018-05-23T14:17:07.443Z,100218.69
2018-05-23T14:19:35.789Z,100217.80
2018-05-23T14:22:03.266Z,100217.55
2018-05-23T14:24:30.657Z,100221.41
2018-05-23T14:26:58.051Z,100220.98
2018-05-23T14:29:25.483Z,100229.70
2018-05-23T14:31:52.888Z,100246.64
2018-05-23T14:34:20.285Z,100261.83
2018-05-23T14:36:47.696Z,100260.45
2018-05-23T14:39:15.066Z,100245.89
2018-05-23T14:41:42.468Z,100252.80
2018-05-23T14:44:09.855Z,100259.73
2018-05-23T14:46:37.253Z,100281.00
2018-05-23T14:49:04.741Z,100290.70
2018-05-23T14:51:32.146Z,100296.98
2018-05-23T14:53:59.532Z,100296.20
2018-05-23T14:56:26.940Z,100290.86
2018-05-23T14:58:54.340Z,100282.73
2018-05-23T15:01:21.738Z,100289.20
2018-05-23T15:03:52.516Z,100284.45
2018-05-23T15:06:19.917Z,100276.66
2018-05-23T15:08:47.829Z,100277.16
2018-05-23T15:11:15.220Z,100283.27
2018-05-23T15:13:42.671Z,100284.91
2018-05-23T15:16:11.031Z,100286.67
2018-05-23T15:18:38.448Z,100287.65
2018-05-23T15:21:06.087Z,100284.66
2018-05-23T15:23:33.467Z,100278.16
2018-05-23T15:26:11.170Z,100276.86
2018-05-23T15:28:38.577Z,100273.41
2018-05-23T15:31:06.312Z,100276.87
2018-05-23T15:33:33.739Z,100277.27
2018-05-23T15:36:01.163Z,100275.94
2018-05-23T15:38:34.161Z,100276.81
2018-05-23T15:41:01.558Z,100272.99
2018-05-23T15:43:28.956Z,100266.48
2018-05-23T15:45:56.406Z,100264.28
2018-05-23T15:48:23.832Z,100265.19
2018-05-23T15:50:51.231Z,100269.52
2018-05-23T15:53:18.686Z,100269.95
2018-05-23T15:55:47.167Z,100266.48
2018-05-23T15:58:14.557Z,100261.31
2018-05-23T16:00:41.961Z,100265.19
2018-05-23T16:03:09.351Z,100262.20
2018-05-23T16:05:37.724Z,100263.47
2018-05-23T16:08:05.124Z,100268.67
2018-05-23T16:10:32.518Z,100264.78
2018-05-23T16:12:59.924Z,100266.08
2018-05-23T16:15:27.321Z,100266.94
2018-05-23T16:17:54.704Z,100267.80
2018-05-23T16:20:22.106Z,100269.98
2018-05-23T16:22:49.500Z,100268.67
2018-05-23T16:25:16.892Z,100270.00
2018-05-23T16:27:44.287Z,100277.78
2018-05-23T16:30:11.674Z,100279.92
2018-05-23T16:32:39.055Z,100286.86
2018-05-23T16:35:06.483Z,100295.06
2018-05-23T16:37:33.876Z,100298.50
2018-05-23T16:40:01.266Z,100298.49
2018-05-23T16:42:28.657Z,100300.60
2018-05-23T16:44:56.042Z,100310.94
2018-05-23T16:47:23.446Z,100315.28
2018-05-23T16:49:50.825Z,100317.41
2018-05-23T16:52:18.273Z,100320.39
2018-05-23T16:54:45.679Z,100319.13
2018-05-23T16:57:13.068Z,100324.77
2018-05-23T16:59:40.449Z,100320.84
2018-05-23T17:02:07.857Z,100324.30
2018-05-23T17:04:35.248Z,100324.69
2018-05-23T17:07:02.640Z,100328.17
2018-05-23T17:09:30.029Z,100342.28
2018-05-23T17:11:57.424Z,100345.03
2018-05-23T17:14:24.803Z,100349.82
2018-05-23T17:16:52.187Z,100358.87
2018-05-23T17:19:19.566Z,100361.86
2018-05-23T17:21:48.426Z,100364.46
2018-05-23T17:24:15.846Z,100367.06
2018-05-23T17:26:43.244Z,100366.59
2018-05-23T17:29:10.624Z,100366.66
2018-05-23T17:31:38.014Z,100363.67
2018-05-23T17:34:05.390Z,100366.66
2018-05-23T17:36:32.787Z,100373.17
2018-05-23T17:39:01.103Z,100374.47
2018-05-23T17:41:28.505Z,100373.50
2018-05-23T17:43:55.898Z,100373.16
2018-05-23T17:46:23.311Z,100372.22
2018-05-23T17:48:50.777Z,100375.02
2018-05-23T17:51:18.076Z,100366.98
2018-05-23T17:53:45.454Z,100370.05
2018-05-23T17:56:12.885Z,100365.81
2018-05-23T17:58:40.240Z,100368.81
2018-05-23T18:01:07.688Z,100368.77
2018-05-23T18:03:35.075Z,100360.20
2018-05-23T18:06:02.571Z,100365.31
2018-05-23T18:08:29.873Z,100360.47
2018-05-23T18:10:57.301Z,100362.21
2018-05-23T18:13:24.657Z,100360.56
2018-05-23T18:15:52.044Z,100360.08
2018-05-23T18:18:19.448Z,100354.44
2018-05-23T18:20:47.773Z,100359.17
2018-05-23T18:23:15.166Z,100360.55
2018-05-23T18:25:42.556Z,100360.08
2018-05-23T18:28:10.034Z,100360.06
2018-05-23T18:30:37.347Z,100354.08
2018-05-23T18:33:04.725Z,100355.83
2018-05-23T18:35:32.106Z,100365.29
2018-05-23T18:37:59.512Z,100363.99
2018-05-23T18:40:26.899Z,100367.38
2018-05-23T18:42:54.286Z,100367.77
2018-05-23T18:45:21.682Z,100374.70
2018-05-23T18:47:49.083Z,100377.61
2018-05-23T18:50:16.471Z,100376.83
2018-05-23T18:52:44.239Z,100379.80
2018-05-23T18:55:11.625Z,100383.98
2018-05-23T18:57:39.031Z,100380.22
2018-05-23T19:00:06.427Z,100384.17
2018-05-23T19:02:33.816Z,100383.11
2018-05-23T19:05:01.253Z,100383.08
2018-05-23T19:07:28.600Z,100383.14
2018-05-23T19:09:55.987Z,100384.10
2018-05-23T19:12:23.395Z,100382.59
2018-05-23T19:14:50.783Z,100375.70
2018-05-23T19:17:19.004Z,100375.92
2018-05-23T19:19:46.507Z,100376.98
2018-05-23T19:22:13.816Z,100372.44
2018-05-23T19:24:41.213Z,100370.80
2018-05-23T19:27:08.601Z,100377.20
2018-05-23T19:29:35.989Z,100367.86
2018-05-23T19:32:03.396Z,100372.69
2018-05-23T19:34:30.773Z,100380.64
2018-05-23T19:36:58.165Z,100381.98
2018-05-23T19:39:25.561Z,100393.47
2018-05-23T19:41:52.942Z,100388.98
2018-05-23T19:44:20.330Z,100389.49
2018-05-23T19:46:48.170Z,100381.97
2018-05-23T19:49:15.568Z,100388.77
2018-05-23T19:51:42.985Z,100394.77
2018-05-23T19:54:10.486Z,100399.08
2018-05-23T19:56:37.930Z,100402.58
2018-05-23T19:59:05.271Z,100405.44
2018-05-23T20:01:32.671Z,100403.66
2018-05-23T20:04:00.086Z,100407.69
2018-05-23T20:06:27.481Z,100404.54
2018-05-23T20:08:54.886Z,100414.19
2018-05-23T20:11:22.270Z,100418.05
2018-05-23T20:13:49.670Z,100421.95
2018-05-23T20:16:17.055Z,100419.82
2018-05-23T20:18:44.655Z,100424.37
2018-05-23T20:21:12.049Z,100422.73
2018-05-23T20:23:39.448Z,100427.47
2018-05-23T20:26:06.840Z,100429.72
2018-05-23T20:28:34.250Z,100425.19
2018-05-23T20:31:01.639Z,100428.13
2018-05-23T20:33:29.035Z,100433.09
2018-05-23T20:35:56.423Z,100431.19
2018-05-23T20:38:23.831Z,100428.41
2018-05-23T20:40:51.228Z,100421.98
2018-05-23T20:43:19.102Z,100431.48
2018-05-23T20:45:46.503Z,100431.69
2018-05-23T20:48:13.900Z,100429.62
2018-05-23T20:50:41.280Z,100428.33
2018-05-23T20:53:08.752Z,100433.05
2018-05-23T20:55:36.074Z,100433.03
2018-05-23T20:58:03.465Z,100430.71
2018-05-23T21:00:30.860Z,100427.67
2018-05-23T21:02:58.255Z,100429.52
2018-05-23T21:05:25.789Z,100422.08
2018-05-23T21:07:53.055Z,100432.05
2018-05-23T21:10:20.438Z,100441.20
2018-05-23T21:12:48.555Z,100430.60
2018-05-23T21:15:15.959Z,100432.91
2018-05-23T21:17:43.371Z,100426.13
2018-05-23T21:20:10.819Z,100430.36
2018-05-23T21:22:38.223Z,100428.02
2018-05-23T21:25:05.604Z,100425.52
2018-05-23T21:27:33.007Z,100425.25
2018-05-23T21:30:00.393Z,100424.48
2018-05-23T21:32:27.787Z,100426.66
2018-05-23T21:34:55.570Z,100428.52
2018-05-23T21:37:22.966Z,100429.86
2018-05-23T21:39:50.355Z,100435.76
2018-05-23T21:42:18.707Z,100432.84
2018-05-23T21:44:46.101Z,100433.27
2018-05-23T21:47:13.695Z,100436.64
2018-05-23T21:49:41.139Z,100438.88
2018-05-23T21:52:08.568Z,100437.20
2018-05-23T21:54:35.983Z,100433.41
2018-05-23T21:57:03.472Z,100434.95
2018-05-23T21:59:30.951Z,100430.37
2018-05-23T22:01:58.343Z,100423.63
2018-05-23T22:04:25.743Z,100429.00
2018-05-23T22:06:53.142Z,100425.74
2018-05-23T22:09:20.544Z,100420.34
2018-05-23T22:11:48.819Z,100420.70
2018-05-23T22:14:16.229Z,100413.57
2018-05-23T22:16:43.619Z,100420.58
2018-05-23T22:19:11.024Z,100416.16
2018-05-23T22:21:38.416Z,100408.02
2018-05-23T22:24:05.811Z,100404.60
2018-05-23T22:26:33.479Z,100400.41
2018-05-23T22:29:00.883Z,100399.27
2018-05-23T22:31:28.263Z,100395.19
2018-05-23T22:33:55.672Z,100394.03
2018-05-23T22:36:23.056Z,100393.58
2018-05-23T22:38:50.466Z,100391.97
2018-05-23T22:41:17.867Z,100404.34
2018-05-23T22:43:45.272Z,100400.67
2018-05-23T22:46:12.660Z,100402.97
2018-05-23T22:48:40.093Z,100408.06
2018-05-23T22:51:07.476Z,100412.80
2018-05-23T22:53:34.874Z,100411.20
2018-05-23T22:56:03.198Z,100408.23
2018-05-23T22:58:30.598Z,100403.64
2018-05-23T23:00:58.093Z,100403.69
2018-05-23T23:03:25.492Z,100404.98
2018-05-23T23:05:52.882Z,100397.59
2018-05-23T23:08:20.361Z,100397.66
2018-05-23T23:10:47.747Z,100398.12
2018-05-23T23:13:15.143Z,100395.06
2018-05-23T23:15:42.533Z,100395.11
2018-05-23T23:18:09.939Z,100394.36
2018-05-23T23:20:37.331Z,100397.97
2018-05-23T23:23:04.742Z,100391.13
2018-05-23T23:25:32.123Z,100395.31
2018-05-23T23:27:59.532Z,100393.12
2018-05-23T23:30:26.928Z,100388.92
2018-05-23T23:32:54.345Z,100386.85
2018-05-23T23:35:21.758Z,100387.92
2018-05-23T23:37:49.280Z,100386.21
2018-05-23T23:40:16.680Z,100392.64
2018-05-23T23:42:44.084Z,100390.55
2018-05-23T23:45:11.469Z,100386.93
2018-05-23T23:47:38.871Z,100391.96
2018-05-23T23:50:06.279Z,100394.67
2018-05-23T23:52:33.671Z,100396.51
2018-05-23T23:55:01.086Z,100398.20
2018-05-23T23:57:28.506Z,100385.03
2018-05-23T23:59:55.915Z,100389.03
